Meredith, Colorado
Current Conditions -  °F | °C
As of 8:53 AM on Sunday 21 Dec 2014 (Local Time) from KASE Reporting Station
Overcast Overcast  
Wind Chill: 24°   Ceiling: 4900
Heat Index: 24°   Visibility: 9mi
Dew Point: 21°   Wind: 3mph
Humidity: 88%   Direction: 10°N
Pressure: 29.93"   Gusts: NA
Location:  39.36°N, 106.73°W
Report Text: KASE 211553Z 01003KT 9SM BKN049 OVC060 M04/M06 A2993 RMK AO2 SNE47 SLP138 P0000 T10441061
Loading
Personal Weather Stations






























Interactive Weather Map New forecast layout! Learn more

10-Day Weather Forecast

Advertisements
Track Severe Weather on mobile